Time;durP1;ratioP1;P1;durP2;ratioP2;P2;SDS_P1;SDS_P2;PMS_P1;PMS_P2;Temp;Humidity;BMP_temperature;BMP_pressure;BME280_temperature;BME280_humidity;BME280_pressure;Samples;Min_cycle;Max_cycle;Signal;HPM_P1;HPM_P2
2021/11/04 00:03:02;;;;;;;166.68;34.75;;;;;;;6.15;100.00;100322.13;10582879;28;20043;-60
2021/11/04 00:08:04;;;;;;;197.77;35.65;;;;;;;6.16;100.00;100334.22;10582828;28;20392;-58
2021/11/04 00:13:07;;;;;;;230.70;36.63;;;;;;;6.05;100.00;100326.94;10582680;28;20048;-60
2021/11/04 00:18:10;;;;;;;222.07;34.97;;;;;;;6.15;100.00;100314.31;10582731;28;20044;-59
2021/11/04 00:23:12;;;;;;;133.13;32.95;;;;;;;6.09;100.00;100309.44;10582194;28;20056;-59
2021/11/04 00:28:16;;;;;;;153.75;33.28;;;;;;;5.88;100.00;100314.66;10582296;28;20051;-58
2021/11/04 00:33:18;;;;;;;149.02;36.25;;;;;;;5.98;100.00;100306.47;10581721;28;20503;-58
2021/11/04 00:38:21;;;;;;;117.70;32.30;;;;;;;6.29;100.00;100304.13;10582647;28;20043;-59
2021/11/04 00:43:23;;;;;;;151.90;36.00;;;;;;;6.16;100.00;100295.22;10581656;28;20391;-60
2021/11/04 00:48:25;;;;;;;135.90;35.15;;;;;;;6.32;100.00;100300.53;10583724;28;20048;-58
2021/11/04 00:53:28;;;;;;;135.98;34.22;;;;;;;6.17;100.00;100296.94;10590579;28;20047;-58
2021/11/04 00:58:30;;;;;;;199.50;37.70;;;;;;;6.04;100.00;100303.59;10590384;28;20052;-60
2021/11/04 01:03:32;;;;;;;152.05;36.72;;;;;;;6.16;100.00;100303.03;10590088;28;20055;-59
2021/11/04 01:08:35;;;;;;;182.20;42.20;;;;;;;6.07;100.00;100303.44;10589958;28;20048;-60
2021/11/04 01:13:38;;;;;;;113.00;36.38;;;;;;;5.94;100.00;100314.38;10589548;28;20058;-61
2021/11/04 01:18:40;;;;;;;197.50;45.03;;;;;;;6.16;100.00;100307.41;10589560;28;20050;-59
2021/11/04 01:23:43;;;;;;;167.45;44.28;;;;;;;6.28;100.00;100310.25;10589829;28;20051;-60
2021/11/04 01:28:45;;;;;;;194.95;45.67;;;;;;;6.18;100.00;100297.75;10589237;28;20051;-60
2021/11/04 01:33:47;;;;;;;299.30;56.70;;;;;;;6.07;100.00;100293.91;10589056;28;20133;-60
2021/11/04 01:38:50;;;;;;;130.25;45.45;;;;;;;6.13;100.00;100293.59;10588901;28;20048;-61
2021/11/04 01:43:52;;;;;;;184.23;49.20;;;;;;;6.11;100.00;100286.81;10588526;28;20051;-59
2021/11/04 01:48:55;;;;;;;263.35;60.25;;;;;;;6.12;100.00;100289.34;10588680;28;20076;-60
2021/11/04 01:53:57;;;;;;;170.35;50.20;;;;;;;6.02;100.00;100289.81;10570034;28;20048;-59
2021/11/04 01:58:59;;;;;;;133.07;43.65;;;;;;;6.05;100.00;100298.34;10587861;28;20044;-61
2021/11/04 02:04:22;;;;;;;159.30;49.38;;;;;;;5.86;100.00;100284.47;10587420;28;20052;-60
2021/11/04 02:09:54;;;;;;;113.57;47.55;;;;;;;6.02;100.00;100274.22;10569455;28;20052;-60
2021/11/04 02:14:58;;;;;;;306.85;62.58;;;;;;;5.81;100.00;100273.44;10567797;28;20053;-60
2021/11/04 02:20:01;;;;;;;387.75;70.25;;;;;;;5.74;100.00;100271.13;10569789;28;20044;-61
2021/11/04 02:25:18;;;;;;;159.88;50.17;;;;;;;5.74;100.00;100276.31;10587244;28;20047;-59
2021/11/04 02:30:22;;;;;;;111.95;47.42;;;;;;;5.79;100.00;100288.28;10587545;28;20048;-60
2021/11/04 02:35:25;;;;;;;276.23;58.95;;;;;;;5.71;100.00;100296.41;10568658;28;20047;-59
2021/11/04 02:40:28;;;;;;;200.75;54.45;;;;;;;5.61;100.00;100298.56;10586118;28;20487;-60
2021/11/04 02:45:30;;;;;;;127.05;47.55;;;;;;;5.48;100.00;100298.28;10568222;28;20495;-59
2021/11/04 02:50:33;;;;;;;286.90;60.03;;;;;;;5.53;100.00;100303.25;10585725;28;20040;-60
2021/11/04 02:55:37;;;;;;;275.13;62.80;;;;;;;5.47;100.00;100295.75;10586174;28;20403;-59
2021/11/04 03:00:42;;;;;;;121.30;47.53;;;;;;;5.88;100.00;100303.41;10585387;28;20044;-60
2021/11/04 03:05:45;;;;;;;171.23;52.90;;;;;;;5.53;100.00;100317.09;10586140;28;20047;-59
2021/11/04 03:10:47;;;;;;;137.70;50.25;;;;;;;5.36;100.00;100317.84;10584723;28;20044;-60
2021/11/04 03:15:57;;;;;;;127.05;48.47;;;;;;;5.51;100.00;100316.28;10584899;28;20096;-59
2021/11/04 03:21:00;;;;;;;143.93;50.00;;;;;;;5.33;100.00;100315.38;10566829;28;20045;-59
2021/11/04 03:26:03;;;;;;;139.00;51.70;;;;;;;5.40;100.00;100310.75;10566423;28;20058;-59
2021/11/04 03:31:05;;;;;;;148.40;50.38;;;;;;;5.71;100.00;100317.19;10565757;28;20502;-59
2021/11/04 03:36:08;;;;;;;133.55;50.72;;;;;;;5.49;100.00;100327.69;10584235;28;20046;-59
2021/11/04 03:41:12;;;;;;;140.02;49.30;;;;;;;5.59;100.00;100358.34;10584470;28;20039;-61
2021/11/04 03:46:15;;;;;;;140.15;49.95;;;;;;;5.92;100.00;100350.00;10565732;28;20059;-59
2021/11/04 03:51:18;;;;;;;123.95;47.60;;;;;;;5.44;100.00;100361.63;10564929;28;20044;-60
2021/11/04 03:56:21;;;;;;;65.45;36.42;;;;;;;6.13;100.00;100347.34;10565451;28;20055;-59
2021/11/04 04:01:24;;;;;;;87.72;41.35;;;;;;;5.92;100.00;100346.56;10565046;28;20534;-59
2021/11/04 04:06:26;;;;;;;76.57;38.10;;;;;;;5.90;100.00;100340.56;10583324;28;20050;-59
2021/11/04 04:11:29;;;;;;;101.18;41.90;;;;;;;5.81;100.00;100339.22;10582811;28;20043;-59
2021/11/04 04:16:31;;;;;;;90.22;40.05;;;;;;;5.63;100.00;100332.25;10583160;28;20043;-59
2021/11/04 04:21:34;;;;;;;77.97;39.20;;;;;;;5.74;100.00;100343.84;10582247;28;20048;-60
2021/11/04 04:26:36;;;;;;;57.00;31.48;;;;;;;5.91;100.00;100329.28;10581866;28;20051;-60
2021/11/04 04:31:38;;;;;;;62.50;31.95;;;;;;;5.87;100.00;100331.16;10582033;28;20050;-59
2021/11/04 04:36:41;;;;;;;85.82;38.28;;;;;;;5.51;100.00;100349.22;10564090;28;20047;-60
2021/11/04 04:41:43;;;;;;;81.40;37.05;;;;;;;5.36;100.00;100338.59;10582440;28;20062;-58
2021/11/04 04:46:46;;;;;;;72.63;35.10;;;;;;;5.59;100.00;100352.31;10581447;28;20065;-60
2021/11/04 04:51:48;;;;;;;75.45;37.60;;;;;;;5.37;100.00;100347.22;10581658;28;20051;-58
2021/11/04 04:56:50;;;;;;;79.60;36.70;;;;;;;5.33;100.00;100349.13;10581814;28;20408;-59
2021/11/04 05:01:53;;;;;;;90.03;36.38;;;;;;;5.65;100.00;100349.47;10581364;28;20484;-59
2021/11/04 05:06:55;;;;;;;79.00;35.30;;;;;;;5.84;100.00;100346.06;10563406;28;20055;-59
2021/11/04 05:11:57;;;;;;;61.63;33.83;;;;;;;5.74;100.00;100358.59;10563137;28;20505;-60
2021/11/04 05:17:00;;;;;;;58.67;32.13;;;;;;;5.34;100.00;100357.75;10563025;28;20491;-61
2021/11/04 05:22:02;;;;;;;63.72;33.92;;;;;;;5.33;100.00;100348.25;10581317;28;20043;-61
2021/11/04 05:27:06;;;;;;;67.72;33.60;;;;;;;5.70;100.00;100355.31;10563193;28;20055;-59
2021/11/04 05:32:08;;;;;;;97.25;40.40;;;;;;;5.37;100.00;100355.84;10581079;28;20062;-59
2021/11/04 05:37:11;;;;;;;79.30;36.90;;;;;;;5.88;100.00;100356.22;10586950;28;20044;-59
2021/11/04 05:42:13;;;;;;;93.50;38.67;;;;;;;5.88;100.00;100361.41;10588773;28;20051;-59
2021/11/04 05:47:16;;;;;;;74.22;35.08;;;;;;;5.64;100.00;100370.31;10588335;28;20070;-59
2021/11/04 05:52:18;;;;;;;100.40;43.45;;;;;;;5.41;100.00;100382.53;10570184;28;20039;-59
2021/11/04 05:57:20;;;;;;;116.65;43.25;;;;;;;5.78;100.00;100391.31;10588635;28;20057;-61
2021/11/04 06:02:23;;;;;;;71.63;36.53;;;;;;;5.46;100.00;100390.97;10587769;28;20479;-59
2021/11/04 06:07:28;;;;;;;77.63;38.38;;;;;;;5.69;100.00;100376.97;10587856;28;20059;-59
2021/11/04 06:12:30;;;;;;;101.20;39.50;;;;;;;5.72;100.00;100376.03;10587522;28;20040;-59
2021/11/04 06:17:32;;;;;;;88.95;39.72;;;;;;;5.36;100.00;100369.75;10587750;28;20047;-59
2021/11/04 06:22:35;;;;;;;97.05;40.63;;;;;;;5.43;100.00;100385.91;10587015;28;20050;-60
2021/11/04 06:27:39;;;;;;;72.57;35.92;;;;;;;5.35;100.00;100399.22;10568968;28;20048;-60
2021/11/04 06:32:41;;;;;;;91.97;41.00;;;;;;;5.32;100.00;100404.53;10586748;28;20051;-59
2021/11/04 06:37:44;;;;;;;90.93;39.25;;;;;;;5.64;100.00;100419.66;10586686;28;20054;-59
2021/11/04 06:42:46;;;;;;;103.35;43.22;;;;;;;5.26;100.00;100419.50;10586152;28;20507;-61
2021/11/04 06:47:51;;;;;;;48.58;26.38;;;;;;;5.93;100.00;100416.66;10585562;28;20134;-59
2021/11/04 06:53:05;;;;;;;87.32;39.92;;;;;;;5.77;100.00;100428.63;10585709;28;20388;-60
2021/11/04 06:58:15;;;;;;;79.55;38.47;;;;;;;5.95;100.00;100440.81;10585392;28;20395;-59
2021/11/04 07:03:24;;;;;;;106.35;42.08;;;;;;;5.59;100.00;100443.22;10585713;28;20047;-58
2021/11/04 07:08:28;;;;;;;98.97;41.70;;;;;;;5.65;100.00;100431.72;10585319;28;20410;-59
2021/11/04 07:13:31;;;;;;;53.28;30.88;;;;;;;5.80;100.00;100432.81;10584886;28;20043;-61
2021/11/04 07:18:34;;;;;;;66.55;33.65;;;;;;;5.91;100.00;100444.44;10584810;28;20384;-59
2021/11/04 07:23:39;;;;;;;54.75;31.00;;;;;;;6.01;100.00;100450.13;10584403;28;20048;-60
2021/11/04 07:28:44;;;;;;;63.83;32.40;;;;;;;5.94;100.00;100441.72;10584371;28;20044;-60
2021/11/04 07:33:47;;;;;;;80.43;34.60;;;;;;;5.72;100.00;100446.16;10584246;28;20055;-60
2021/11/04 07:38:51;;;;;;;46.38;29.55;;;;;;;5.56;100.00;100446.81;10566108;28;20071;-58
2021/11/04 07:43:53;;;;;;;47.30;27.30;;;;;;;5.80;100.00;100456.19;10583730;28;20425;-59
2021/11/04 07:48:56;;;;;;;46.67;27.63;;;;;;;5.64;100.00;100456.03;10565664;28;20051;-60
2021/11/04 07:53:59;;;;;;;54.38;29.13;;;;;;;5.71;100.00;100455.69;10583062;28;20047;-59
2021/11/04 07:59:01;;;;;;;56.75;29.05;;;;;;;5.76;100.00;100458.94;10582230;28;20510;-60
2021/11/04 08:04:04;;;;;;;83.00;34.35;;;;;;;5.70;100.00;100455.75;10583330;28;20398;-58
2021/11/04 08:09:06;;;;;;;43.00;26.85;;;;;;;5.86;100.00;100459.38;10583092;28;20040;-59
2021/11/04 08:14:08;;;;;;;71.05;32.75;;;;;;;5.98;100.00;100462.41;10583081;28;20048;-59
2021/11/04 08:19:11;;;;;;;49.67;29.75;;;;;;;6.01;100.00;100447.50;10582581;28;20039;-61
2021/11/04 08:24:13;;;;;;;46.65;27.42;;;;;;;6.04;100.00;100451.75;10582554;28;20048;-60
2021/11/04 08:29:16;;;;;;;51.83;28.65;;;;;;;6.44;100.00;100445.59;10582837;28;20052;-60
2021/11/04 08:34:18;;;;;;;40.22;25.55;;;;;;;6.54;100.00;100450.34;10582192;28;20054;-60
2021/11/04 08:39:20;;;;;;;40.13;25.33;;;;;;;6.73;100.00;100453.81;10582354;28;20052;-60
2021/11/04 08:44:24;;;;;;;30.73;22.55;;;;;;;7.17;100.00;100455.22;10581640;28;20445;-61
2021/11/04 08:49:27;;;;;;;44.63;26.33;;;;;;;6.61;100.00;100455.22;10582223;28;20152;-60
2021/11/04 08:54:30;;;;;;;34.42;23.80;;;;;;;7.24;100.00;100462.63;10581622;28;20051;-59
2021/11/04 08:59:33;;;;;;;29.85;21.83;;;;;;;8.08;100.00;100477.53;10581673;28;20066;-59
2021/11/04 09:04:36;;;;;;;34.83;24.58;;;;;;;7.08;100.00;100477.31;10581356;28;20044;-58
2021/11/04 09:09:38;;;;;;;34.72;24.55;;;;;;;7.55;100.00;100489.78;10583310;28;20048;-58
2021/11/04 09:14:42;;;;;;;33.42;22.90;;;;;;;7.57;100.00;100497.53;10589450;28;20499;-61
2021/11/04 09:19:45;;;;;;;28.67;21.67;;;;;;;7.87;100.00;100500.34;10588768;28;20407;-61
2021/11/04 09:24:47;;;;;;;34.78;24.30;;;;;;;7.54;100.00;100510.69;10571852;28;20047;-60
2021/11/04 09:29:50;;;;;;;32.45;22.85;;;;;;;7.77;100.00;100512.16;10589654;28;20043;-59
2021/11/04 09:34:53;;;;;;;31.00;22.27;;;;;;;7.60;100.00;100513.84;10588706;28;20046;-61
2021/11/04 09:39:55;;;;;;;26.92;20.50;;;;;;;7.59;100.00;100517.34;10588862;28;20051;-61
2021/11/04 09:44:57;;;;;;;31.70;24.95;;;;;;;7.18;100.00;100522.84;10588763;28;20398;-60
2021/11/04 09:50:04;;;;;;;36.83;25.30;;;;;;;7.27;100.00;100531.97;10588275;28;20050;-59
2021/11/04 09:55:11;;;;;;;32.42;23.33;;;;;;;7.21;100.00;100533.09;10588528;28;20087;-59
2021/11/04 10:00:14;;;;;;;29.90;20.73;;;;;;;7.74;100.00;100554.03;10588380;28;20052;-61
2021/11/04 10:05:16;;;;;;;29.20;22.38;;;;;;;8.06;100.00;100552.41;10588496;28;20084;-60
2021/11/04 10:10:21;;;;;;;37.60;26.15;;;;;;;7.28;100.00;100564.03;10587713;28;20039;-62
2021/11/04 10:15:23;;;;;;;36.53;25.17;;;;;;;7.90;100.00;100573.19;10587779;28;20051;-61
2021/11/04 10:20:27;;;;;;;28.33;21.50;;;;;;;7.80;100.00;100575.41;10586422;28;20043;-60
2021/11/04 10:25:30;;;;;;;27.27;19.33;;;;;;;7.85;100.00;100571.72;10587553;28;20054;-61
2021/11/04 10:30:41;;;;;;;30.45;21.85;;;;;;;8.06;100.00;100565.44;10587502;28;20070;-63
2021/11/04 10:35:44;;;;;;;29.40;21.05;;;;;;;7.90;100.00;100578.41;10586398;28;20476;-60
2021/11/04 10:40:51;;;;;;;40.78;24.85;;;;;;;7.27;100.00;100571.03;10569405;28;20122;-61
2021/11/04 10:46:05;;;;;;;32.58;23.38;;;;;;;7.63;100.00;100576.22;10586703;28;20056;-60
2021/11/04 10:51:13;;;;;;;37.92;26.35;;;;;;;7.33;100.00;100585.50;10586106;28;20463;-61
2021/11/04 10:56:19;;;;;;;42.92;27.27;;;;;;;7.44;100.00;100584.06;10567806;28;20052;-61
2021/11/04 11:01:32;;;;;;;38.92;27.17;;;;;;;7.66;100.00;100577.84;10585877;28;20044;-61
2021/11/04 11:06:40;;;;;;;50.78;29.90;;;;;;;7.54;100.00;100581.88;10585585;28;20394;-61
2021/11/04 11:11:48;;;;;;;52.20;31.92;;;;;;;7.47;100.00;100587.47;10585469;28;20044;-61
2021/11/04 11:16:54;;;;;;;54.15;35.20;;;;;;;7.23;100.00;100592.94;10567140;28;20047;-61
2021/11/04 11:21:57;;;;;;;57.15;34.70;;;;;;;6.92;100.00;100598.69;10566457;28;20498;-60
2021/11/04 11:27:01;;;;;;;42.70;30.52;;;;;;;7.38;100.00;100600.00;10584594;28;20051;-61
2021/11/04 11:32:05;;;;;;;44.78;29.65;;;;;;;7.57;100.00;100606.97;10549512;28;20055;-60
2021/11/04 11:37:20;;;;;;;46.13;29.58;;;;;;;7.15;100.00;100608.88;10566279;28;20055;-61
2021/11/04 11:42:59;;;;;;;39.75;27.92;;;;;;;7.89;100.00;100601.94;10584518;28;20075;-61
2021/11/04 11:48:22;;;;;;;35.65;26.65;;;;;;;8.06;100.00;100607.16;10583528;28;20407;-59
2021/11/04 11:53:33;;;;;;;34.22;24.95;;;;;;;8.18;100.00;100600.47;10583529;28;20054;-62
2021/11/04 11:58:47;;;;;;;39.78;27.83;;;;;;;8.22;100.00;100608.97;10583469;28;20050;-61
2021/11/04 12:03:59;;;;;;;36.33;26.10;;;;;;;8.25;100.00;100604.44;10583689;28;20050;-61
2021/11/04 12:09:02;;;;;;;37.03;25.88;;;;;;;8.53;100.00;100608.31;10583079;28;20135;-61
2021/11/04 12:14:20;;;;;;;32.67;25.67;;;;;;;8.59;100.00;100609.75;10583531;28;20048;-60
2021/11/04 12:19:32;;;;;;;28.98;22.70;;;;;;;8.52;100.00;100606.59;10582845;28;20084;-60
2021/11/04 12:24:34;;;;;;;27.10;19.88;;;;;;;8.50;100.00;100611.91;10582789;28;20056;-62
2021/11/04 12:29:37;;;;;;;30.90;21.15;;;;;;;8.62;100.00;100617.41;10582087;28;20043;-60
2021/11/04 12:34:40;;;;;;;26.23;20.15;;;;;;;8.50;100.00;100618.91;10582576;28;20047;-62
2021/11/04 12:39:46;;;;;;;30.10;22.88;;;;;;;8.99;100.00;100624.13;10581982;28;20506;-61
2021/11/04 12:44:48;;;;;;;30.20;23.10;;;;;;;8.94;100.00;100626.16;10581469;28;20059;-61
2021/11/04 12:49:52;;;;;;;31.83;23.20;;;;;;;9.16;100.00;100635.47;10581834;28;20392;-60
2021/11/04 12:54:56;;;;;;;31.60;21.23;;;;;;;9.24;100.00;100635.88;10581820;28;20044;-61
2021/11/04 13:00:05;;;;;;;30.25;22.45;;;;;;;9.28;100.00;100648.72;10581229;28;20498;-61
2021/11/04 13:05:13;;;;;;;30.60;20.85;;;;;;;9.20;100.00;100647.44;10581533;28;20058;-61
2021/11/04 13:10:20;;;;;;;28.42;20.48;;;;;;;9.52;100.00;100652.69;10582275;28;20079;-61
2021/11/04 13:15:24;;;;;;;28.42;22.00;;;;;;;9.52;100.00;100657.91;10581568;28;20075;-60
2021/11/04 13:20:35;;;;;;;35.00;21.70;;;;;;;9.00;100.00;100659.78;10582019;28;20039;-62
2021/11/04 13:25:42;;;;;;;29.67;20.98;;;;;;;9.35;100.00;100653.59;10581223;28;20054;-59
2021/11/04 13:30:49;;;;;;;27.98;18.98;;;;;;;9.62;100.00;100653.84;10581416;28;20051;-60
2021/11/04 13:36:14;;;;;;;23.98;17.38;;;;;;;9.38;100.00;100671.69;10581406;28;20152;-59
2021/11/04 13:41:23;;;;;;;27.98;21.27;;;;;;;9.54;100.00;100674.34;10581601;28;20048;-59
2021/11/04 13:46:28;;;;;;;27.33;19.25;;;;;;;9.48;100.00;100678.13;10581061;28;20052;-60
2021/11/04 13:51:40;;;;;;;26.67;20.15;;;;;;;9.48;100.00;100681.59;10580646;28;20123;-60
2021/11/04 13:56:48;;;;;;;23.55;18.45;;;;;;;9.19;100.00;100680.53;10582564;28;20078;-59
2021/11/04 14:01:52;;;;;;;25.77;19.67;;;;;;;9.65;100.00;100690.28;10588149;28;20058;-59
2021/11/04 14:06:54;;;;;;;21.02;17.05;;;;;;;9.82;100.00;100686.72;10588495;28;20055;-59
2021/11/04 14:12:11;;;;;;;19.23;16.98;;;;;;;9.69;100.00;100675.25;10587450;28;20480;-59
2021/11/04 14:17:15;;;;;;;23.27;18.90;;;;;;;9.49;100.00;100683.25;10570122;28;20047;-59
2021/11/04 14:22:17;;;;;;;22.42;17.05;;;;;;;9.70;100.00;100690.00;10587192;28;20131;-59
2021/11/04 14:27:20;;;;;;;21.08;17.77;;;;;;;9.22;100.00;100683.00;10586969;28;20055;-59
2021/11/04 14:32:22;;;;;;;25.27;19.02;;;;;;;9.20;100.00;100694.47;10587147;28;20048;-59
2021/11/04 14:37:24;;;;;;;22.45;18.15;;;;;;;8.98;100.00;100698.19;10586954;28;20048;-59
2021/11/04 14:42:27;;;;;;;25.75;21.20;;;;;;;8.44;100.00;100703.56;10586330;28;20054;-60
2021/11/04 14:47:29;;;;;;;25.80;20.83;;;;;;;8.57;100.00;100708.16;10586498;28;20055;-59
2021/11/04 14:52:32;;;;;;;26.00;20.00;;;;;;;8.36;100.00;100706.50;10568386;28;20044;-59
2021/11/04 14:57:35;;;;;;;31.58;22.30;;;;;;;8.22;100.00;100729.81;10586128;28;20067;-60
2021/11/04 15:02:37;;;;;;;25.90;18.85;;;;;;;8.11;100.00;100737.31;10585611;28;20073;-60
2021/11/04 15:07:43;;;;;;;29.52;20.77;;;;;;;7.84;100.00;100742.09;10585462;28;20048;-59
2021/11/04 15:12:53;;;;;;;26.35;21.30;;;;;;;7.88;100.00;100759.25;10585691;28;20095;-60
2021/11/04 15:17:55;;;;;;;25.42;20.50;;;;;;;8.02;100.00;100759.47;10585015;28;20487;-59
2021/11/04 15:22:58;;;;;;;27.48;21.63;;;;;;;7.82;100.00;100768.22;10584794;28;20070;-59
2021/11/04 15:28:00;;;;;;;28.83;21.80;;;;;;;7.99;100.00;100777.84;10584965;28;20408;-59
2021/11/04 15:33:03;;;;;;;29.65;22.92;;;;;;;7.74;100.00;100781.59;10584285;28;20491;-60
2021/11/04 15:38:05;;;;;;;34.72;21.80;;;;;;;8.12;100.00;100784.19;10566518;28;20054;-59
2021/11/04 15:43:07;;;;;;;26.23;19.55;;;;;;;8.14;100.00;100797.16;10584030;28;20051;-60
2021/11/04 15:48:10;;;;;;;37.13;22.90;;;;;;;7.76;100.00;100804.97;10584312;28;20054;-59
2021/11/04 15:53:12;;;;;;;28.55;21.08;;;;;;;7.76;100.00;100816.25;10583855;28;20054;-59
2021/11/04 15:58:15;;;;;;;36.10;24.42;;;;;;;7.40;100.00;100823.94;10583493;28;20043;-59
2021/11/04 16:03:17;;;;;;;32.15;23.75;;;;;;;7.35;100.00;100821.53;10583360;28;20052;-59
2021/11/04 16:08:19;;;;;;;37.67;23.52;;;;;;;7.17;100.00;100833.59;10582925;28;20048;-59
2021/11/04 16:13:23;;;;;;;30.60;22.08;;;;;;;6.95;100.00;100848.44;10583038;28;20051;-59
2021/11/04 16:18:25;;;;;;;38.42;26.88;;;;;;;6.72;100.00;100839.78;10582222;28;20044;-59
2021/11/04 16:23:28;;;;;;;37.20;24.88;;;;;;;6.72;100.00;100862.38;10582467;28;20051;-59
2021/11/04 16:28:30;;;;;;;32.95;21.63;;;;;;;6.72;100.00;100865.81;10582686;28;20403;-59
2021/11/04 16:33:32;;;;;;;29.30;20.90;;;;;;;6.66;100.00;100869.53;10582245;28;20046;-60
2021/11/04 16:38:35;;;;;;;35.08;25.42;;;;;;;6.46;100.00;100874.66;10582024;28;20505;-60
2021/11/04 16:43:40;;;;;;;49.75;30.38;;;;;;;6.32;100.00;100882.97;10581933;28;20075;-59
2021/11/04 16:48:42;;;;;;;41.97;28.20;;;;;;;6.29;100.00;100886.56;10582480;28;20069;-59
2021/11/04 16:53:45;;;;;;;53.80;33.67;;;;;;;6.30;100.00;100892.59;10581893;28;20051;-59
2021/11/04 16:58:47;;;;;;;40.63;26.33;;;;;;;6.35;100.00;100900.22;10581494;28;20403;-58
2021/11/04 17:03:50;;;;;;;36.10;25.98;;;;;;;6.49;100.00;100897.97;10581730;28;20051;-59
2021/11/04 17:08:56;;;;;;;39.28;25.90;;;;;;;6.00;100.00;100902.38;10581535;28;20411;-59
2021/11/04 17:14:00;;;;;;;39.08;25.00;;;;;;;5.99;100.00;100911.94;10563593;28;20392;-58
2021/11/04 17:19:03;;;;;;;40.15;24.88;;;;;;;5.86;100.00;100924.50;10581527;28;20070;-59
2021/11/04 17:24:06;;;;;;;37.70;24.30;;;;;;;6.02;100.00;100919.63;10581080;28;20380;-59
2021/11/04 17:29:08;;;;;;;41.67;26.63;;;;;;;5.84;100.00;100931.50;10581547;28;20055;-59
2021/11/04 17:34:11;;;;;;;40.67;28.10;;;;;;;5.71;100.00;100938.03;10588848;28;20445;-59
2021/11/04 17:39:13;;;;;;;52.53;29.98;;;;;;;5.51;100.00;100951.69;10588561;28;20057;-58
2021/11/04 17:44:16;;;;;;;32.35;22.42;;;;;;;5.97;100.00;100962.28;10588978;28;20131;-59
2021/11/04 17:49:18;;;;;;;40.08;26.17;;;;;;;5.74;100.00;100969.09;10570510;28;20495;-59
2021/11/04 17:54:22;;;;;;;44.78;27.27;;;;;;;5.76;100.00;100977.69;10588886;28;20044;-59
2021/11/04 17:59:25;;;;;;;46.63;27.20;;;;;;;5.84;100.00;100980.03;10570690;28;20043;-59
2021/11/04 18:04:27;;;;;;;40.63;27.65;;;;;;;5.91;100.00;100984.09;10588229;28;20395;-59
2021/11/04 18:09:33;;;;;;;40.55;25.63;;;;;;;5.94;100.00;100992.63;10588047;28;20052;-59
2021/11/04 18:14:35;;;;;;;45.88;28.23;;;;;;;5.99;100.00;101002.91;10588291;28;20051;-59
2021/11/04 18:19:38;;;;;;;44.35;25.98;;;;;;;6.28;100.00;101007.06;10587614;28;20059;-59
2021/11/04 18:24:40;;;;;;;45.10;28.52;;;;;;;5.98;100.00;101015.97;10588119;28;20043;-58
2021/11/04 18:29:42;;;;;;;30.33;24.05;;;;;;;6.05;100.00;101022.63;10586802;28;20043;-60
2021/11/04 18:34:45;;;;;;;46.83;30.05;;;;;;;6.19;100.00;101029.97;10587005;28;20051;-59
2021/11/04 18:39:47;;;;;;;38.42;27.52;;;;;;;6.23;100.00;101035.00;10586500;28;20438;-59
2021/11/04 18:44:50;;;;;;;35.55;26.15;;;;;;;6.48;100.00;101029.75;10585526;28;20388;-59
2021/11/04 18:49:56;;;;;;;53.03;31.85;;;;;;;6.16;100.00;101038.72;10586369;28;20070;-59
2021/11/04 18:54:58;;;;;;;57.97;33.85;;;;;;;6.11;100.00;101038.03;10568668;28;20054;-60
2021/11/04 19:00:02;;;;;;;42.80;27.92;;;;;;;6.01;100.00;101045.28;10585562;28;20059;-59
2021/11/04 19:05:05;;;;;;;43.25;29.23;;;;;;;6.02;100.00;101047.00;10585973;28;20044;-59
2021/11/04 19:10:08;;;;;;;41.58;30.23;;;;;;;5.88;100.00;101052.63;10585459;28;20039;-58
2021/11/04 19:15:11;;;;;;;62.08;36.78;;;;;;;5.89;100.00;101061.28;10585215;28;20407;-59
2021/11/04 19:20:14;;;;;;;60.78;37.58;;;;;;;5.98;100.00;101063.59;10585102;28;20044;-59
2021/11/04 19:25:17;;;;;;;69.65;39.63;;;;;;;5.65;100.00;101075.91;10584800;28;20399;-59
2021/11/04 19:30:20;;;;;;;55.45;32.33;;;;;;;5.81;100.00;101077.13;10584471;28;20510;-59
2021/11/04 19:35:22;;;;;;;60.80;40.25;;;;;;;6.05;100.00;101092.81;10584258;28;20475;-59
2021/11/04 19:40:25;;;;;;;65.28;41.63;;;;;;;6.24;100.00;101096.50;10584037;28;20048;-59
2021/11/04 19:45:27;;;;;;;68.50;43.67;;;;;;;6.47;100.00;101100.91;10566104;28;20518;-59
2021/11/04 19:50:31;;;;;;;66.25;44.00;;;;;;;6.54;100.00;101095.47;10584386;28;20058;-59
2021/11/04 19:55:34;;;;;;;61.38;41.53;;;;;;;6.88;100.00;101105.50;10583732;28;20043;-59
2021/11/04 20:00:36;;;;;;;54.55;36.95;;;;;;;6.88;100.00;101121.13;10583924;28;20097;-60
2021/11/04 20:05:43;;;;;;;47.05;34.47;;;;;;;7.18;100.00;101132.16;10583293;28;20395;-59
2021/11/04 20:10:46;;;;;;;55.83;38.25;;;;;;;7.09;100.00;101142.91;10583605;28;20055;-59
2021/11/04 20:15:48;;;;;;;54.95;38.17;;;;;;;7.14;100.00;101143.56;10583789;28;20058;-59
2021/11/04 20:20:50;;;;;;;55.00;37.85;;;;;;;7.27;100.00;101150.94;10582625;28;20047;-58
2021/11/04 20:25:53;;;;;;;52.13;35.97;;;;;;;7.23;100.00;101160.63;10582571;28;20509;-59
2021/11/04 20:30:57;;;;;;;48.10;34.15;;;;;;;7.21;100.00;101175.44;10582331;28;20075;-60
2021/11/04 20:36:00;;;;;;;54.58;37.80;;;;;;;7.32;100.00;101169.84;10582142;28;20398;-60
2021/11/04 20:41:03;;;;;;;55.50;37.25;;;;;;;7.09;100.00;101178.50;10581939;28;20050;-59
2021/11/04 20:46:06;;;;;;;53.05;37.72;;;;;;;7.05;100.00;101189.03;10581681;28;20521;-59
2021/11/04 20:51:09;;;;;;;53.38;32.13;;;;;;;6.92;100.00;101194.75;10582086;28;20109;-59
2021/11/04 20:56:11;;;;;;;41.05;29.33;;;;;;;6.78;100.00;101198.69;10581875;28;20483;-59
2021/11/04 21:01:14;;;;;;;42.50;29.00;;;;;;;6.61;100.00;101206.25;10582037;28;20044;-59
2021/11/04 21:06:16;;;;;;;34.92;25.02;;;;;;;6.48;100.00;101217.03;10584908;28;20051;-58
2021/11/04 21:11:19;;;;;;;38.40;27.23;;;;;;;6.60;100.00;101222.75;10590301;28;20051;-59
2021/11/04 21:16:22;;;;;;;44.45;27.05;;;;;;;6.26;100.00;101226.47;10590008;28;20498;-58
2021/11/04 21:21:26;;;;;;;36.90;26.70;;;;;;;6.29;100.00;101229.81;10589696;28;20483;-59
2021/11/04 21:26:29;;;;;;;41.90;27.27;;;;;;;6.06;100.00;101235.75;10589639;28;20047;-59
2021/11/04 21:31:32;;;;;;;65.43;34.85;;;;;;;5.78;100.00;101240.91;10589236;28;20496;-59
2021/11/04 21:36:34;;;;;;;56.00;29.75;;;;;;;5.85;100.00;101246.75;10589514;28;20059;-59
2021/11/04 21:41:37;;;;;;;55.97;33.03;;;;;;;5.57;100.00;101258.00;10588984;28;20073;-59
2021/11/04 21:46:39;;;;;;;55.42;33.92;;;;;;;5.45;100.00;101266.16;10589028;28;20059;-59
2021/11/04 21:51:42;;;;;;;87.10;47.22;;;;;;;5.40;100.00;101269.72;10588953;28;20048;-59
2021/11/04 21:56:44;;;;;;;48.72;29.02;;;;;;;5.68;100.00;101273.25;10588586;28;20052;-59
2021/11/04 22:01:47;;;;;;;78.40;37.20;;;;;;;5.59;100.00;101279.56;10588449;28;20047;-60
2021/11/04 22:06:52;;;;;;;56.42;33.05;;;;;;;5.75;100.00;101282.59;10588103;28;20559;-59
2021/11/04 22:11:54;;;;;;;82.13;37.33;;;;;;;5.50;100.00;101285.06;10569849;28;20043;-59
2021/11/04 22:16:57;;;;;;;57.50;32.45;;;;;;;5.77;100.00;101284.22;10586728;28;20054;-59
2021/11/04 22:21:59;;;;;;;44.85;27.60;;;;;;;5.86;100.00;101293.50;10570464;28;20044;-59
2021/11/04 22:27:03;;;;;;;60.03;35.00;;;;;;;5.71;100.00;101309.53;10588267;28;20048;-58
2021/11/04 22:32:06;;;;;;;60.75;34.40;;;;;;;5.75;100.00;101308.56;10587082;28;20051;-58
2021/11/04 22:37:08;;;;;;;82.50;36.40;;;;;;;5.83;100.00;101303.13;10587180;28;20380;-59
2021/11/04 22:42:11;;;;;;;91.22;39.47;;;;;;;5.68;100.00;101315.69;10568611;28;20046;-59